sensor_id;sensor_type;location;lat;lon;timestamp;P1;durP1;ratioP1;P2;durP2;ratioP2
19285;SDS011;9776;50.798;6.430;2022-09-09T00:02:08;1.05;;;1.05;;
19285;SDS011;9776;50.798;6.430;2022-09-09T00:04:44;0.90;;;0.90;;
19285;SDS011;9776;50.798;6.430;2022-09-09T00:07:20;1.05;;;1.05;;
19285;SDS011;9776;50.798;6.430;2022-09-09T00:09:52;1.00;;;1.00;;
19285;SDS011;9776;50.798;6.430;2022-09-09T00:12:32;1.00;;;1.00;;
19285;SDS011;9776;50.798;6.430;2022-09-09T00:15:02;0.90;;;0.90;;
19285;SDS011;9776;50.798;6.430;2022-09-09T00:17:35;1.00;;;1.00;;
19285;SDS011;9776;50.798;6.430;2022-09-09T00:20:10;1.05;;;1.05;;
19285;SDS011;9776;50.798;6.430;2022-09-09T00:22:40;1.10;;;1.00;;
19285;SDS011;9776;50.798;6.430;2022-09-09T00:25:14;1.00;;;1.00;;
19285;SDS011;9776;50.798;6.430;2022-09-09T00:27:47;0.90;;;0.90;;
19285;SDS011;9776;50.798;6.430;2022-09-09T00:30:16;1.00;;;1.00;;
19285;SDS011;9776;50.798;6.430;2022-09-09T00:32:47;0.77;;;0.77;;
19285;SDS011;9776;50.798;6.430;2022-09-09T00:35:18;0.90;;;0.90;;
19285;SDS011;9776;50.798;6.430;2022-09-09T00:37:50;0.80;;;0.80;;
19285;SDS011;9776;50.798;6.430;2022-09-09T00:40:22;1.00;;;1.00;;
19285;SDS011;9776;50.798;6.430;2022-09-09T00:42:54;1.00;;;1.00;;
19285;SDS011;9776;50.798;6.430;2022-09-09T00:48:43;1.00;;;1.00;;
19285;SDS011;9776;50.798;6.430;2022-09-09T00:51:22;1.00;;;1.00;;
19285;SDS011;9776;50.798;6.430;2022-09-09T00:54:04;0.90;;;0.90;;
19285;SDS011;9776;50.798;6.430;2022-09-09T00:56:43;1.05;;;1.05;;
19285;SDS011;9776;50.798;6.430;2022-09-09T00:59:18;1.10;;;1.10;;
19285;SDS011;9776;50.798;6.430;2022-09-09T01:01:54;1.27;;;1.20;;
19285;SDS011;9776;50.798;6.430;2022-09-09T01:04:23;0.90;;;0.90;;
19285;SDS011;9776;50.798;6.430;2022-09-09T01:06:59;0.90;;;0.88;;
19285;SDS011;9776;50.798;6.430;2022-09-09T01:09:32;1.00;;;1.00;;
19285;SDS011;9776;50.798;6.430;2022-09-09T01:12:09;1.08;;;1.08;;
19285;SDS011;9776;50.798;6.430;2022-09-09T01:14:41;1.23;;;1.13;;
19285;SDS011;9776;50.798;6.430;2022-09-09T01:17:13;0.90;;;0.90;;
19285;SDS011;9776;50.798;6.430;2022-09-09T01:19:47;0.90;;;0.90;;
19285;SDS011;9776;50.798;6.430;2022-09-09T01:22:25;1.10;;;1.05;;
19285;SDS011;9776;50.798;6.430;2022-09-09T01:27:56;1.23;;;1.13;;
19285;SDS011;9776;50.798;6.430;2022-09-09T01:30:25;1.10;;;1.00;;
19285;SDS011;9776;50.798;6.430;2022-09-09T01:32:53;1.08;;;1.08;;
19285;SDS011;9776;50.798;6.430;2022-09-09T01:35:28;1.10;;;1.10;;
19285;SDS011;9776;50.798;6.430;2022-09-09T01:38:03;0.95;;;0.95;;
19285;SDS011;9776;50.798;6.430;2022-09-09T01:40:30;1.10;;;1.10;;
19285;SDS011;9776;50.798;6.430;2022-09-09T01:42:59;1.38;;;1.30;;
19285;SDS011;9776;50.798;6.430;2022-09-09T01:45:26;1.05;;;1.05;;
19285;SDS011;9776;50.798;6.430;2022-09-09T01:47:53;1.35;;;1.25;;
19285;SDS011;9776;50.798;6.430;2022-09-09T01:50:20;1.02;;;1.00;;
19285;SDS011;9776;50.798;6.430;2022-09-09T01:52:48;1.42;;;1.33;;
19285;SDS011;9776;50.798;6.430;2022-09-09T01:55:18;1.08;;;1.08;;
19285;SDS011;9776;50.798;6.430;2022-09-09T01:57:56;1.02;;;1.02;;
19285;SDS011;9776;50.798;6.430;2022-09-09T02:00:36;1.13;;;1.00;;
19285;SDS011;9776;50.798;6.430;2022-09-09T02:03:12;1.23;;;1.20;;
19285;SDS011;9776;50.798;6.430;2022-09-09T02:05:49;1.48;;;1.20;;
19285;SDS011;9776;50.798;6.430;2022-09-09T02:08:24;1.52;;;1.42;;
19285;SDS011;9776;50.798;6.430;2022-09-09T02:10:59;1.40;;;1.30;;
19285;SDS011;9776;50.798;6.430;2022-09-09T02:13:34;1.63;;;1.52;;
19285;SDS011;9776;50.798;6.430;2022-09-09T02:16:04;1.33;;;1.23;;
19285;SDS011;9776;50.798;6.430;2022-09-09T02:18:35;1.48;;;1.38;;
19285;SDS011;9776;50.798;6.430;2022-09-09T02:21:06;1.70;;;1.60;;
19285;SDS011;9776;50.798;6.430;2022-09-09T02:23:33;1.70;;;1.60;;
19285;SDS011;9776;50.798;6.430;2022-09-09T02:26:02;1.70;;;1.60;;
19285;SDS011;9776;50.798;6.430;2022-09-09T02:28:30;1.63;;;1.52;;
19285;SDS011;9776;50.798;6.430;2022-09-09T02:31:01;1.67;;;1.58;;
19285;SDS011;9776;50.798;6.430;2022-09-09T02:33:28;1.48;;;1.38;;
19285;SDS011;9776;50.798;6.430;2022-09-09T02:36:00;1.70;;;1.60;;
19285;SDS011;9776;50.798;6.430;2022-09-09T02:38:29;1.73;;;1.63;;
19285;SDS011;9776;50.798;6.430;2022-09-09T02:41:01;1.50;;;1.40;;
19285;SDS011;9776;50.798;6.430;2022-09-09T02:43:31;1.77;;;1.67;;
19285;SDS011;9776;50.798;6.430;2022-09-09T02:46:02;2.03;;;1.80;;
19285;SDS011;9776;50.798;6.430;2022-09-09T02:48:35;1.58;;;1.48;;
19285;SDS011;9776;50.798;6.430;2022-09-09T02:51:06;3.10;;;1.92;;
19285;SDS011;9776;50.798;6.430;2022-09-09T02:53:42;1.65;;;1.55;;
19285;SDS011;9776;50.798;6.430;2022-09-09T02:56:14;1.88;;;1.63;;
19285;SDS011;9776;50.798;6.430;2022-09-09T02:58:43;1.60;;;1.50;;
19285;SDS011;9776;50.798;6.430;2022-09-09T03:01:12;1.70;;;1.60;;
19285;SDS011;9776;50.798;6.430;2022-09-09T03:03:39;1.55;;;1.45;;
19285;SDS011;9776;50.798;6.430;2022-09-09T03:06:06;1.85;;;1.75;;
19285;SDS011;9776;50.798;6.430;2022-09-09T03:08:33;1.55;;;1.45;;
19285;SDS011;9776;50.798;6.430;2022-09-09T03:10:59;2.00;;;1.80;;
19285;SDS011;9776;50.798;6.430;2022-09-09T03:13:27;1.88;;;1.77;;
19285;SDS011;9776;50.798;6.430;2022-09-09T03:15:54;1.80;;;1.70;;
19285;SDS011;9776;50.798;6.430;2022-09-09T03:18:22;1.50;;;1.40;;
19285;SDS011;9776;50.798;6.430;2022-09-09T03:20:48;1.52;;;1.42;;
19285;SDS011;9776;50.798;6.430;2022-09-09T03:23:16;1.90;;;1.80;;
19285;SDS011;9776;50.798;6.430;2022-09-09T03:25:46;1.80;;;1.70;;
19285;SDS011;9776;50.798;6.430;2022-09-09T03:28:13;1.70;;;1.60;;
19285;SDS011;9776;50.798;6.430;2022-09-09T03:30:40;1.95;;;1.80;;
19285;SDS011;9776;50.798;6.430;2022-09-09T03:33:06;1.90;;;1.80;;
19285;SDS011;9776;50.798;6.430;2022-09-09T03:35:34;1.83;;;1.70;;
19285;SDS011;9776;50.798;6.430;2022-09-09T03:38:01;1.88;;;1.77;;
19285;SDS011;9776;50.798;6.430;2022-09-09T03:40:28;1.80;;;1.70;;
19285;SDS011;9776;50.798;6.430;2022-09-09T03:42:56;1.95;;;1.85;;
19285;SDS011;9776;50.798;6.430;2022-09-09T03:45:22;2.55;;;2.35;;
19285;SDS011;9776;50.798;6.430;2022-09-09T03:47:49;2.00;;;1.80;;
19285;SDS011;9776;50.798;6.430;2022-09-09T03:50:15;1.92;;;1.77;;
19285;SDS011;9776;50.798;6.430;2022-09-09T03:52:44;1.85;;;1.75;;
19285;SDS011;9776;50.798;6.430;2022-09-09T03:55:12;1.88;;;1.70;;
19285;SDS011;9776;50.798;6.430;2022-09-09T03:57:38;2.00;;;1.90;;
19285;SDS011;9776;50.798;6.430;2022-09-09T04:00:06;2.10;;;2.00;;
19285;SDS011;9776;50.798;6.430;2022-09-09T04:02:34;1.67;;;1.58;;
19285;SDS011;9776;50.798;6.430;2022-09-09T04:05:00;2.38;;;2.15;;
19285;SDS011;9776;50.798;6.430;2022-09-09T04:07:27;2.08;;;1.98;;
19285;SDS011;9776;50.798;6.430;2022-09-09T04:09:55;2.08;;;1.98;;
19285;SDS011;9776;50.798;6.430;2022-09-09T04:12:22;2.22;;;2.13;;
19285;SDS011;9776;50.798;6.430;2022-09-09T04:14:48;1.73;;;1.63;;
19285;SDS011;9776;50.798;6.430;2022-09-09T04:17:15;2.30;;;2.10;;
19285;SDS011;9776;50.798;6.430;2022-09-09T04:19:42;1.90;;;1.80;;
19285;SDS011;9776;50.798;6.430;2022-09-09T04:22:08;2.15;;;2.05;;
19285;SDS011;9776;50.798;6.430;2022-09-09T04:24:35;2.10;;;2.00;;
19285;SDS011;9776;50.798;6.430;2022-09-09T04:27:03;2.10;;;1.92;;
19285;SDS011;9776;50.798;6.430;2022-09-09T04:29:30;1.95;;;1.85;;
19285;SDS011;9776;50.798;6.430;2022-09-09T04:31:56;2.10;;;2.00;;
19285;SDS011;9776;50.798;6.430;2022-09-09T04:34:23;2.08;;;1.98;;
19285;SDS011;9776;50.798;6.430;2022-09-09T04:36:50;2.25;;;2.15;;
19285;SDS011;9776;50.798;6.430;2022-09-09T04:39:17;2.65;;;2.15;;
19285;SDS011;9776;50.798;6.430;2022-09-09T04:41:44;2.15;;;2.00;;
19285;SDS011;9776;50.798;6.430;2022-09-09T04:44:13;2.15;;;2.00;;
19285;SDS011;9776;50.798;6.430;2022-09-09T04:46:40;1.88;;;1.77;;
19285;SDS011;9776;50.798;6.430;2022-09-09T04:49:07;1.73;;;1.63;;
19285;SDS011;9776;50.798;6.430;2022-09-09T04:51:35;2.55;;;2.35;;
19285;SDS011;9776;50.798;6.430;2022-09-09T04:54:02;2.38;;;2.17;;
19285;SDS011;9776;50.798;6.430;2022-09-09T04:56:30;2.10;;;1.90;;
19285;SDS011;9776;50.798;6.430;2022-09-09T04:58:57;1.83;;;1.73;;
19285;SDS011;9776;50.798;6.430;2022-09-09T05:01:25;1.80;;;1.70;;
19285;SDS011;9776;50.798;6.430;2022-09-09T05:03:52;2.10;;;1.90;;
19285;SDS011;9776;50.798;6.430;2022-09-09T05:06:19;1.60;;;1.50;;
19285;SDS011;9776;50.798;6.430;2022-09-09T05:08:47;1.60;;;1.50;;
19285;SDS011;9776;50.798;6.430;2022-09-09T05:11:18;1.67;;;1.58;;
19285;SDS011;9776;50.798;6.430;2022-09-09T05:13:46;1.70;;;1.60;;
19285;SDS011;9776;50.798;6.430;2022-09-09T05:16:15;1.67;;;1.58;;
19285;SDS011;9776;50.798;6.430;2022-09-09T05:18:44;1.85;;;1.75;;
19285;SDS011;9776;50.798;6.430;2022-09-09T05:21:11;1.60;;;1.50;;
19285;SDS011;9776;50.798;6.430;2022-09-09T05:23:39;1.73;;;1.63;;
19285;SDS011;9776;50.798;6.430;2022-09-09T05:26:07;2.28;;;1.75;;
19285;SDS011;9776;50.798;6.430;2022-09-09T05:28:38;1.98;;;1.80;;
19285;SDS011;9776;50.798;6.430;2022-09-09T05:31:05;1.67;;;1.58;;
19285;SDS011;9776;50.798;6.430;2022-09-09T05:33:34;1.52;;;1.42;;
19285;SDS011;9776;50.798;6.430;2022-09-09T05:36:03;1.67;;;1.50;;
19285;SDS011;9776;50.798;6.430;2022-09-09T05:38:31;1.50;;;1.40;;
19285;SDS011;9776;50.798;6.430;2022-09-09T05:40:58;1.60;;;1.50;;
19285;SDS011;9776;50.798;6.430;2022-09-09T05:43:25;1.83;;;1.73;;
19285;SDS011;9776;50.798;6.430;2022-09-09T05:46:00;1.48;;;1.38;;
19285;SDS011;9776;50.798;6.430;2022-09-09T05:48:29;1.40;;;1.30;;
19285;SDS011;9776;50.798;6.430;2022-09-09T05:50:57;1.45;;;1.35;;
19285;SDS011;9776;50.798;6.430;2022-09-09T05:53:25;2.08;;;1.42;;
19285;SDS011;9776;50.798;6.430;2022-09-09T05:55:58;1.80;;;1.70;;
19285;SDS011;9776;50.798;6.430;2022-09-09T05:58:26;1.52;;;1.42;;
19285;SDS011;9776;50.798;6.430;2022-09-09T06:00:59;1.58;;;1.48;;
19285;SDS011;9776;50.798;6.430;2022-09-09T06:03:27;1.63;;;1.52;;
19285;SDS011;9776;50.798;6.430;2022-09-09T06:05:56;2.53;;;1.70;;
19285;SDS011;9776;50.798;6.430;2022-09-09T06:08:23;1.65;;;1.50;;
19285;SDS011;9776;50.798;6.430;2022-09-09T06:10:52;1.65;;;1.55;;
19285;SDS011;9776;50.798;6.430;2022-09-09T06:13:18;1.40;;;1.40;;
19285;SDS011;9776;50.798;6.430;2022-09-09T06:15:49;1.23;;;1.13;;
19285;SDS011;9776;50.798;6.430;2022-09-09T06:18:16;1.67;;;1.58;;
19285;SDS011;9776;50.798;6.430;2022-09-09T06:20:43;1.30;;;1.20;;
19285;SDS011;9776;50.798;6.430;2022-09-09T06:23:19;1.40;;;1.30;;
19285;SDS011;9776;50.798;6.430;2022-09-09T06:25:47;1.30;;;1.20;;
19285;SDS011;9776;50.798;6.430;2022-09-09T06:28:14;1.60;;;1.50;;
19285;SDS011;9776;50.798;6.430;2022-09-09T06:30:40;1.23;;;1.20;;
19285;SDS011;9776;50.798;6.430;2022-09-09T06:33:07;1.20;;;1.10;;
19285;SDS011;9776;50.798;6.430;2022-09-09T06:35:35;1.60;;;1.50;;
19285;SDS011;9776;50.798;6.430;2022-09-09T06:38:01;1.70;;;1.60;;
19285;SDS011;9776;50.798;6.430;2022-09-09T06:40:28;1.60;;;1.50;;
19285;SDS011;9776;50.798;6.430;2022-09-09T06:43:00;2.17;;;1.77;;
19285;SDS011;9776;50.798;6.430;2022-09-09T06:45:27;1.48;;;1.38;;
19285;SDS011;9776;50.798;6.430;2022-09-09T06:47:54;1.20;;;1.10;;
19285;SDS011;9776;50.798;6.430;2022-09-09T06:50:21;1.15;;;1.10;;
19285;SDS011;9776;50.798;6.430;2022-09-09T06:52:48;1.42;;;1.33;;
19285;SDS011;9776;50.798;6.430;2022-09-09T06:55:14;1.80;;;1.70;;
19285;SDS011;9776;50.798;6.430;2022-09-09T06:57:43;1.60;;;1.50;;
19285;SDS011;9776;50.798;6.430;2022-09-09T07:00:12;2.05;;;1.48;;
19285;SDS011;9776;50.798;6.430;2022-09-09T07:02:39;1.50;;;1.40;;
19285;SDS011;9776;50.798;6.430;2022-09-09T07:05:06;1.58;;;1.48;;
19285;SDS011;9776;50.798;6.430;2022-09-09T07:07:34;1.35;;;1.25;;
19285;SDS011;9776;50.798;6.430;2022-09-09T07:10:01;0.98;;;0.98;;
19285;SDS011;9776;50.798;6.430;2022-09-09T07:12:29;1.33;;;1.23;;
19285;SDS011;9776;50.798;6.430;2022-09-09T07:14:55;1.30;;;1.20;;
19285;SDS011;9776;50.798;6.430;2022-09-09T07:17:23;1.70;;;1.30;;
19285;SDS011;9776;50.798;6.430;2022-09-09T07:19:50;1.45;;;1.30;;
19285;SDS011;9776;50.798;6.430;2022-09-09T07:22:17;1.33;;;1.10;;
19285;SDS011;9776;50.798;6.430;2022-09-09T07:24:45;1.83;;;1.27;;
19285;SDS011;9776;50.798;6.430;2022-09-09T07:27:12;1.38;;;1.25;;
19285;SDS011;9776;50.798;6.430;2022-09-09T07:29:38;2.35;;;1.15;;
19285;SDS011;9776;50.798;6.430;2022-09-09T07:32:05;1.20;;;1.17;;
19285;SDS011;9776;50.798;6.430;2022-09-09T07:34:33;1.23;;;1.17;;
19285;SDS011;9776;50.798;6.430;2022-09-09T07:37:00;1.23;;;1.10;;
19285;SDS011;9776;50.798;6.430;2022-09-09T07:39:27;1.15;;;1.08;;
19285;SDS011;9776;50.798;6.430;2022-09-09T07:41:54;1.10;;;0.95;;
19285;SDS011;9776;50.798;6.430;2022-09-09T07:44:22;1.45;;;1.20;;
19285;SDS011;9776;50.798;6.430;2022-09-09T07:46:51;1.13;;;1.02;;
19285;SDS011;9776;50.798;6.430;2022-09-09T07:49:18;1.17;;;1.13;;
19285;SDS011;9776;50.798;6.430;2022-09-09T07:51:46;1.02;;;1.02;;
19285;SDS011;9776;50.798;6.430;2022-09-09T07:54:15;1.00;;;0.90;;
19285;SDS011;9776;50.798;6.430;2022-09-09T07:56:45;1.23;;;1.13;;
19285;SDS011;9776;50.798;6.430;2022-09-09T07:59:14;1.17;;;1.08;;
19285;SDS011;9776;50.798;6.430;2022-09-09T08:01:42;0.88;;;0.88;;
19285;SDS011;9776;50.798;6.430;2022-09-09T08:04:11;0.95;;;0.95;;
19285;SDS011;9776;50.798;6.430;2022-09-09T08:06:42;1.15;;;1.10;;
19285;SDS011;9776;50.798;6.430;2022-09-09T08:09:13;0.80;;;0.80;;
19285;SDS011;9776;50.798;6.430;2022-09-09T08:11:43;0.95;;;0.95;;
19285;SDS011;9776;50.798;6.430;2022-09-09T08:14:10;0.93;;;0.88;;
19285;SDS011;9776;50.798;6.430;2022-09-09T08:16:39;2.90;;;1.10;;
19285;SDS011;9776;50.798;6.430;2022-09-09T08:19:07;1.10;;;1.00;;
19285;SDS011;9776;50.798;6.430;2022-09-09T08:21:40;0.90;;;0.90;;
19285;SDS011;9776;50.798;6.430;2022-09-09T08:24:09;1.08;;;0.98;;
19285;SDS011;9776;50.798;6.430;2022-09-09T08:26:42;1.25;;;0.95;;
19285;SDS011;9776;50.798;6.430;2022-09-09T08:29:11;1.00;;;1.00;;
19285;SDS011;9776;50.798;6.430;2022-09-09T08:31:39;1.27;;;1.02;;
19285;SDS011;9776;50.798;6.430;2022-09-09T08:34:08;0.80;;;0.80;;
19285;SDS011;9776;50.798;6.430;2022-09-09T08:36:36;0.82;;;0.82;;
19285;SDS011;9776;50.798;6.430;2022-09-09T08:39:04;0.80;;;0.80;;
19285;SDS011;9776;50.798;6.430;2022-09-09T08:41:45;1.00;;;1.00;;
19285;SDS011;9776;50.798;6.430;2022-09-09T08:44:29;1.40;;;1.30;;
19285;SDS011;9776;50.798;6.430;2022-09-09T08:47:09;2.15;;;1.13;;
19285;SDS011;9776;50.798;6.430;2022-09-09T08:49:52;1.17;;;1.08;;
19285;SDS011;9776;50.798;6.430;2022-09-09T08:52:31;1.20;;;1.10;;
19285;SDS011;9776;50.798;6.430;2022-09-09T08:55:18;0.98;;;0.98;;
19285;SDS011;9776;50.798;6.430;2022-09-09T08:57:52;0.77;;;0.77;;
19285;SDS011;9776;50.798;6.430;2022-09-09T09:00:22;0.90;;;0.90;;
19285;SDS011;9776;50.798;6.430;2022-09-09T09:02:56;0.75;;;0.75;;
19285;SDS011;9776;50.798;6.430;2022-09-09T09:05:35;0.70;;;0.70;;
19285;SDS011;9776;50.798;6.430;2022-09-09T09:08:12;1.13;;;1.02;;
19285;SDS011;9776;50.798;6.430;2022-09-09T09:10:47;0.80;;;0.80;;
19285;SDS011;9776;50.798;6.430;2022-09-09T09:13:17;1.10;;;1.10;;
19285;SDS011;9776;50.798;6.430;2022-09-09T09:15:48;0.68;;;0.68;;
19285;SDS011;9776;50.798;6.430;2022-09-09T09:18:18;0.90;;;0.90;;
19285;SDS011;9776;50.798;6.430;2022-09-09T09:20:50;1.15;;;1.10;;
19285;SDS011;9776;50.798;6.430;2022-09-09T09:23:22;0.85;;;0.85;;
19285;SDS011;9776;50.798;6.430;2022-09-09T09:25:52;2.47;;;1.10;;
19285;SDS011;9776;50.798;6.430;2022-09-09T09:28:26;1.02;;;0.93;;
19285;SDS011;9776;50.798;6.430;2022-09-09T09:30:56;0.90;;;0.90;;
19285;SDS011;9776;50.798;6.430;2022-09-09T09:33:27;0.93;;;0.93;;
19285;SDS011;9776;50.798;6.430;2022-09-09T09:36:00;0.90;;;0.90;;
19285;SDS011;9776;50.798;6.430;2022-09-09T09:38:28;2.20;;;2.10;;
19285;SDS011;9776;50.798;6.430;2022-09-09T09:40:56;2.70;;;2.50;;
19285;SDS011;9776;50.798;6.430;2022-09-09T09:43:26;1.88;;;1.77;;
19285;SDS011;9776;50.798;6.430;2022-09-09T09:45:54;2.88;;;2.78;;
19285;SDS011;9776;50.798;6.430;2022-09-09T09:48:23;2.47;;;2.38;;
19285;SDS011;9776;50.798;6.430;2022-09-09T09:50:50;2.80;;;2.70;;
19285;SDS011;9776;50.798;6.430;2022-09-09T09:53:20;2.15;;;2.05;;
19285;SDS011;9776;50.798;6.430;2022-09-09T09:55:51;1.63;;;1.52;;
19285;SDS011;9776;50.798;6.430;2022-09-09T09:58:22;1.92;;;1.83;;
19285;SDS011;9776;50.798;6.430;2022-09-09T10:00:52;1.88;;;1.77;;
19285;SDS011;9776;50.798;6.430;2022-09-09T10:03:24;1.95;;;1.85;;
19285;SDS011;9776;50.798;6.430;2022-09-09T10:05:53;1.70;;;1.63;;
19285;SDS011;9776;50.798;6.430;2022-09-09T10:08:21;1.73;;;1.63;;
19285;SDS011;9776;50.798;6.430;2022-09-09T10:10:55;1.42;;;1.33;;
19285;SDS011;9776;50.798;6.430;2022-09-09T10:13:29;1.20;;;1.17;;
19285;SDS011;9776;50.798;6.430;2022-09-09T10:16:13;0.90;;;0.90;;
19285;SDS011;9776;50.798;6.430;2022-09-09T10:18:56;0.70;;;0.70;;
19285;SDS011;9776;50.798;6.430;2022-09-09T10:21:32;0.88;;;0.88;;
19285;SDS011;9776;50.798;6.430;2022-09-09T10:27:10;0.75;;;0.73;;
19285;SDS011;9776;50.798;6.430;2022-09-09T10:29:56;1.20;;;1.20;;
19285;SDS011;9776;50.798;6.430;2022-09-09T10:32:37;0.70;;;0.70;;
19285;SDS011;9776;50.798;6.430;2022-09-09T10:35:12;0.85;;;0.85;;
19285;SDS011;9776;50.798;6.430;2022-09-09T10:40:42;0.73;;;0.73;;
19285;SDS011;9776;50.798;6.430;2022-09-09T10:43:19;0.70;;;0.70;;
19285;SDS011;9776;50.798;6.430;2022-09-09T10:46:00;0.70;;;0.70;;
19285;SDS011;9776;50.798;6.430;2022-09-09T10:48:38;0.90;;;0.90;;
19285;SDS011;9776;50.798;6.430;2022-09-09T10:51:19;0.80;;;0.80;;
19285;SDS011;9776;50.798;6.430;2022-09-09T10:53:52;1.05;;;0.88;;
19285;SDS011;9776;50.798;6.430;2022-09-09T10:56:30;2.05;;;1.00;;
19285;SDS011;9776;50.798;6.430;2022-09-09T10:58:58;1.17;;;1.08;;
19285;SDS011;9776;50.798;6.430;2022-09-09T11:01:30;0.98;;;0.88;;
19285;SDS011;9776;50.798;6.430;2022-09-09T11:04:02;0.80;;;0.80;;
19285;SDS011;9776;50.798;6.430;2022-09-09T11:06:37;0.80;;;0.80;;
19285;SDS011;9776;50.798;6.430;2022-09-09T11:09:08;1.20;;;0.80;;
19285;SDS011;9776;50.798;6.430;2022-09-09T11:11:43;1.02;;;0.90;;
19285;SDS011;9776;50.798;6.430;2022-09-09T11:14:18;0.73;;;0.73;;
19285;SDS011;9776;50.798;6.430;2022-09-09T11:16:49;0.75;;;0.75;;
19285;SDS011;9776;50.798;6.430;2022-09-09T11:19:21;1.08;;;0.93;;
19285;SDS011;9776;50.798;6.430;2022-09-09T11:21:53;0.90;;;0.90;;
19285;SDS011;9776;50.798;6.430;2022-09-09T11:24:23;0.90;;;0.90;;
19285;SDS011;9776;50.798;6.430;2022-09-09T11:26:55;0.80;;;0.80;;
19285;SDS011;9776;50.798;6.430;2022-09-09T11:29:38;1.02;;;1.02;;
19285;SDS011;9776;50.798;6.430;2022-09-09T11:32:38;0.93;;;0.93;;
19285;SDS011;9776;50.798;6.430;2022-09-09T11:35:37;1.02;;;1.02;;
19285;SDS011;9776;50.798;6.430;2022-09-09T11:38:16;0.90;;;0.85;;
19285;SDS011;9776;50.798;6.430;2022-09-09T11:40:47;1.17;;;1.10;;
19285;SDS011;9776;50.798;6.430;2022-09-09T11:43:23;0.70;;;0.70;;
19285;SDS011;9776;50.798;6.430;2022-09-09T11:45:55;0.90;;;0.90;;
19285;SDS011;9776;50.798;6.430;2022-09-09T11:48:27;0.73;;;0.73;;
19285;SDS011;9776;50.798;6.430;2022-09-09T11:51:00;0.95;;;0.88;;
19285;SDS011;9776;50.798;6.430;2022-09-09T11:53:32;0.80;;;0.80;;
19285;SDS011;9776;50.798;6.430;2022-09-09T11:56:01;0.90;;;0.90;;
19285;SDS011;9776;50.798;6.430;2022-09-09T11:58:31;1.10;;;0.98;;
19285;SDS011;9776;50.798;6.430;2022-09-09T12:01:12;0.80;;;0.80;;
19285;SDS011;9776;50.798;6.430;2022-09-09T12:03:55;0.80;;;0.80;;
19285;SDS011;9776;50.798;6.430;2022-09-09T12:06:32;1.00;;;0.90;;
19285;SDS011;9776;50.798;6.430;2022-09-09T12:09:12;0.88;;;0.88;;
19285;SDS011;9776;50.798;6.430;2022-09-09T12:11:45;1.17;;;1.05;;
19285;SDS011;9776;50.798;6.430;2022-09-09T12:14:19;0.80;;;0.80;;
19285;SDS011;9776;50.798;6.430;2022-09-09T12:16:46;0.80;;;0.80;;
19285;SDS011;9776;50.798;6.430;2022-09-09T12:19:14;1.40;;;1.40;;
19285;SDS011;9776;50.798;6.430;2022-09-09T12:21:46;2.13;;;1.30;;
19285;SDS011;9776;50.798;6.430;2022-09-09T12:24:19;1.52;;;1.42;;
19285;SDS011;9776;50.798;6.430;2022-09-09T12:26:54;1.77;;;1.67;;
19285;SDS011;9776;50.798;6.430;2022-09-09T12:29:28;1.80;;;1.70;;
19285;SDS011;9776;50.798;6.430;2022-09-09T12:32:07;1.40;;;1.40;;
19285;SDS011;9776;50.798;6.430;2022-09-09T12:34:38;0.90;;;0.90;;
19285;SDS011;9776;50.798;6.430;2022-09-09T12:37:11;0.85;;;0.85;;
19285;SDS011;9776;50.798;6.430;2022-09-09T12:39:44;0.80;;;0.80;;
19285;SDS011;9776;50.798;6.430;2022-09-09T12:42:16;0.65;;;0.65;;
19285;SDS011;9776;50.798;6.430;2022-09-09T12:44:50;0.70;;;0.70;;
19285;SDS011;9776;50.798;6.430;2022-09-09T12:47:22;0.70;;;0.70;;
19285;SDS011;9776;50.798;6.430;2022-09-09T12:49:54;0.70;;;0.70;;
19285;SDS011;9776;50.798;6.430;2022-09-09T12:52:24;0.80;;;0.80;;
19285;SDS011;9776;50.798;6.430;2022-09-09T12:54:55;0.82;;;0.73;;
19285;SDS011;9776;50.798;6.430;2022-09-09T12:57:24;0.60;;;0.60;;
19285;SDS011;9776;50.798;6.430;2022-09-09T13:00:03;0.95;;;0.60;;
19285;SDS011;9776;50.798;6.430;2022-09-09T13:02:31;0.80;;;0.80;;
19285;SDS011;9776;50.798;6.430;2022-09-09T13:05:05;0.70;;;0.70;;
19285;SDS011;9776;50.798;6.430;2022-09-09T13:07:41;0.63;;;0.63;;
19285;SDS011;9776;50.798;6.430;2022-09-09T13:10:10;0.60;;;0.60;;
19285;SDS011;9776;50.798;6.430;2022-09-09T13:12:37;0.90;;;0.90;;
19285;SDS011;9776;50.798;6.430;2022-09-09T13:15:09;0.90;;;0.90;;
19285;SDS011;9776;50.798;6.430;2022-09-09T13:17:49;1.05;;;1.05;;
19285;SDS011;9776;50.798;6.430;2022-09-09T13:20:19;2.30;;;2.20;;
19285;SDS011;9776;50.798;6.430;2022-09-09T13:22:48;1.63;;;1.52;;
19285;SDS011;9776;50.798;6.430;2022-09-09T13:25:18;0.68;;;0.68;;
19285;SDS011;9776;50.798;6.430;2022-09-09T13:27:55;0.68;;;0.68;;
19285;SDS011;9776;50.798;6.430;2022-09-09T13:30:24;0.80;;;0.80;;
19285;SDS011;9776;50.798;6.430;2022-09-09T13:33:00;0.63;;;0.60;;
19285;SDS011;9776;50.798;6.430;2022-09-09T13:35:48;0.70;;;0.70;;
19285;SDS011;9776;50.798;6.430;2022-09-09T13:38:18;0.77;;;0.77;;
19285;SDS011;9776;50.798;6.430;2022-09-09T13:40:55;0.80;;;0.80;;
19285;SDS011;9776;50.798;6.430;2022-09-09T13:43:24;0.80;;;0.80;;
19285;SDS011;9776;50.798;6.430;2022-09-09T13:45:53;0.90;;;0.80;;
19285;SDS011;9776;50.798;6.430;2022-09-09T13:48:21;1.42;;;0.90;;
19285;SDS011;9776;50.798;6.430;2022-09-09T13:50:53;1.00;;;0.90;;
19285;SDS011;9776;50.798;6.430;2022-09-09T13:53:23;0.70;;;0.70;;
19285;SDS011;9776;50.798;6.430;2022-09-09T13:55:49;0.82;;;0.63;;
19285;SDS011;9776;50.798;6.430;2022-09-09T13:58:17;0.73;;;0.73;;
19285;SDS011;9776;50.798;6.430;2022-09-09T14:00:44;0.80;;;0.80;;
19285;SDS011;9776;50.798;6.430;2022-09-09T14:03:11;0.80;;;0.80;;
19285;SDS011;9776;50.798;6.430;2022-09-09T14:05:38;0.60;;;0.60;;
19285;SDS011;9776;50.798;6.430;2022-09-09T14:08:05;0.70;;;0.70;;
19285;SDS011;9776;50.798;6.430;2022-09-09T14:10:35;0.70;;;0.70;;
19285;SDS011;9776;50.798;6.430;2022-09-09T14:13:02;0.85;;;0.85;;
19285;SDS011;9776;50.798;6.430;2022-09-09T14:15:28;0.90;;;0.90;;
19285;SDS011;9776;50.798;6.430;2022-09-09T14:17:55;0.80;;;0.80;;
19285;SDS011;9776;50.798;6.430;2022-09-09T14:20:24;0.90;;;0.90;;
19285;SDS011;9776;50.798;6.430;2022-09-09T14:22:51;1.13;;;0.80;;
19285;SDS011;9776;50.798;6.430;2022-09-09T14:25:18;0.90;;;0.90;;
19285;SDS011;9776;50.798;6.430;2022-09-09T14:27:46;1.08;;;1.00;;
19285;SDS011;9776;50.798;6.430;2022-09-09T14:30:13;1.00;;;1.00;;
19285;SDS011;9776;50.798;6.430;2022-09-09T14:32:39;0.82;;;0.82;;
19285;SDS011;9776;50.798;6.430;2022-09-09T14:35:06;0.75;;;0.75;;
19285;SDS011;9776;50.798;6.430;2022-09-09T14:37:33;0.82;;;0.82;;
19285;SDS011;9776;50.798;6.430;2022-09-09T14:40:00;1.33;;;1.10;;
19285;SDS011;9776;50.798;6.430;2022-09-09T14:42:27;1.00;;;0.90;;
19285;SDS011;9776;50.798;6.430;2022-09-09T14:44:56;1.30;;;1.20;;
19285;SDS011;9776;50.798;6.430;2022-09-09T14:47:23;0.88;;;0.88;;
19285;SDS011;9776;50.798;6.430;2022-09-09T14:49:51;1.10;;;1.00;;
19285;SDS011;9776;50.798;6.430;2022-09-09T14:52:18;0.80;;;0.80;;
19285;SDS011;9776;50.798;6.430;2022-09-09T14:54:45;1.35;;;1.00;;
19285;SDS011;9776;50.798;6.430;2022-09-09T14:57:12;1.00;;;0.80;;
19285;SDS011;9776;50.798;6.430;2022-09-09T14:59:38;0.82;;;0.82;;
19285;SDS011;9776;50.798;6.430;2022-09-09T15:02:07;1.00;;;1.00;;
19285;SDS011;9776;50.798;6.430;2022-09-09T15:04:34;0.90;;;0.90;;
19285;SDS011;9776;50.798;6.430;2022-09-09T15:07:01;0.77;;;0.77;;
19285;SDS011;9776;50.798;6.430;2022-09-09T15:09:28;0.90;;;0.90;;
19285;SDS011;9776;50.798;6.430;2022-09-09T15:11:55;1.10;;;1.00;;
19285;SDS011;9776;50.798;6.430;2022-09-09T15:14:21;0.73;;;0.70;;
19285;SDS011;9776;50.798;6.430;2022-09-09T15:16:48;1.27;;;1.17;;
19285;SDS011;9776;50.798;6.430;2022-09-09T15:19:16;1.10;;;1.00;;
19285;SDS011;9776;50.798;6.430;2022-09-09T15:21:43;0.70;;;0.70;;
19285;SDS011;9776;50.798;6.430;2022-09-09T15:24:09;0.88;;;0.80;;
19285;SDS011;9776;50.798;6.430;2022-09-09T15:26:36;1.20;;;1.10;;
19285;SDS011;9776;50.798;6.430;2022-09-09T15:29:04;0.98;;;0.88;;
19285;SDS011;9776;50.798;6.430;2022-09-09T15:31:32;0.73;;;0.73;;
19285;SDS011;9776;50.798;6.430;2022-09-09T15:33:59;0.98;;;0.98;;